sensor_id;sensor_type;location;lat;lon;timestamp;temperature;humidity
75130;HTU21D;63703;44.716;37.846;2022-12-19T00:00:22;3.03;76.27
75130;HTU21D;63703;44.716;37.846;2022-12-19T00:02:48;3.00;76.22
75130;HTU21D;63703;44.716;37.846;2022-12-19T00:05:14;3.00;76.14
75130;HTU21D;63703;44.716;37.846;2022-12-19T00:07:40;3.00;76.05
75130;HTU21D;63703;44.716;37.846;2022-12-19T00:10:06;3.01;75.92
75130;HTU21D;63703;44.716;37.846;2022-12-19T00:12:33;2.97;76.01
75130;HTU21D;63703;44.716;37.846;2022-12-19T00:14:58;2.98;75.92
75130;HTU21D;63703;44.716;37.846;2022-12-19T00:17:24;2.96;75.92
75130;HTU21D;63703;44.716;37.846;2022-12-19T00:19:50;2.93;75.99
75130;HTU21D;63703;44.716;37.846;2022-12-19T00:22:16;2.90;76.05
75130;HTU21D;63703;44.716;37.846;2022-12-19T00:24:43;2.88;76.03
75130;HTU21D;63703;44.716;37.846;2022-12-19T00:27:09;2.85;76.11
75130;HTU21D;63703;44.716;37.846;2022-12-19T00:29:35;2.83;76.15
75130;HTU21D;63703;44.716;37.846;2022-12-19T00:32:01;2.81;76.12
75130;HTU21D;63703;44.716;37.846;2022-12-19T00:34:26;2.81;76.15
75130;HTU21D;63703;44.716;37.846;2022-12-19T00:36:52;2.79;76.00
75130;HTU21D;63703;44.716;37.846;2022-12-19T00:39:18;2.79;75.92
75130;HTU21D;63703;44.716;37.846;2022-12-19T00:41:44;2.79;75.89
75130;HTU21D;63703;44.716;37.846;2022-12-19T00:44:12;2.76;75.90
75130;HTU21D;63703;44.716;37.846;2022-12-19T00:46:42;2.78;75.79
75130;HTU21D;63703;44.716;37.846;2022-12-19T00:49:08;2.75;75.86
75130;HTU21D;63703;44.716;37.846;2022-12-19T00:51:36;2.78;75.75
75130;HTU21D;63703;44.716;37.846;2022-12-19T00:54:03;2.75;75.57
75130;HTU21D;63703;44.716;37.846;2022-12-19T00:56:34;2.76;75.57
75130;HTU21D;63703;44.716;37.846;2022-12-19T00:59:00;2.75;75.56
75130;HTU21D;63703;44.716;37.846;2022-12-19T01:01:29;2.72;75.57
75130;HTU21D;63703;44.716;37.846;2022-12-19T01:03:57;2.73;75.56
75130;HTU21D;63703;44.716;37.846;2022-12-19T01:06:25;2.74;75.37
75130;HTU21D;63703;44.716;37.846;2022-12-19T01:08:51;2.72;75.41
75130;HTU21D;63703;44.716;37.846;2022-12-19T01:11:20;2.71;75.37
75130;HTU21D;63703;44.716;37.846;2022-12-19T01:14:06;2.70;75.30
75130;HTU21D;63703;44.716;37.846;2022-12-19T01:16:32;2.70;75.09
75130;HTU21D;63703;44.716;37.846;2022-12-19T01:18:58;2.70;75.02
75130;HTU21D;63703;44.716;37.846;2022-12-19T01:21:24;2.69;75.06
75130;HTU21D;63703;44.716;37.846;2022-12-19T01:23:50;2.69;74.94
75130;HTU21D;63703;44.716;37.846;2022-12-19T01:26:17;2.67;75.08
75130;HTU21D;63703;44.716;37.846;2022-12-19T01:28:43;2.66;75.05
75130;HTU21D;63703;44.716;37.846;2022-12-19T01:31:09;2.64;75.02
75130;HTU21D;63703;44.716;37.846;2022-12-19T01:33:35;2.64;75.02
75130;HTU21D;63703;44.716;37.846;2022-12-19T01:36:04;2.62;75.03
75130;HTU21D;63703;44.716;37.846;2022-12-19T01:38:34;2.59;75.11
75130;HTU21D;63703;44.716;37.846;2022-12-19T01:41:01;2.56;75.22
75130;HTU21D;63703;44.716;37.846;2022-12-19T01:43:51;2.57;75.23
75130;HTU21D;63703;44.716;37.846;2022-12-19T01:46:41;2.55;75.28
75130;HTU21D;63703;44.716;37.846;2022-12-19T01:49:34;2.51;75.44
75130;HTU21D;63703;44.716;37.846;2022-12-19T01:52:06;2.50;75.43
75130;HTU21D;63703;44.716;37.846;2022-12-19T01:54:35;2.45;75.51
75130;HTU21D;63703;44.716;37.846;2022-12-19T01:57:05;2.44;75.49
75130;HTU21D;63703;44.716;37.846;2022-12-19T01:59:36;2.42;75.55
75130;HTU21D;63703;44.716;37.846;2022-12-19T02:02:11;2.44;75.45
75130;HTU21D;63703;44.716;37.846;2022-12-19T02:04:39;2.43;75.35
75130;HTU21D;63703;44.716;37.846;2022-12-19T02:07:08;2.43;75.34
75130;HTU21D;63703;44.716;37.846;2022-12-19T02:09:35;2.42;75.35
75130;HTU21D;63703;44.716;37.846;2022-12-19T02:12:02;2.40;75.39
75130;HTU21D;63703;44.716;37.846;2022-12-19T02:14:32;2.41;75.28
75130;HTU21D;63703;44.716;37.846;2022-12-19T02:17:07;2.41;75.31
75130;HTU21D;63703;44.716;37.846;2022-12-19T02:19:51;2.38;75.33
75130;HTU21D;63703;44.716;37.846;2022-12-19T02:33:04;2.25;75.46
75130;HTU21D;63703;44.716;37.846;2022-12-19T02:43:53;2.15;75.39
75130;HTU21D;63703;44.716;37.846;2022-12-19T02:46:24;2.12;75.44
75130;HTU21D;63703;44.716;37.846;2022-12-19T02:48:53;2.10;75.50
75130;HTU21D;63703;44.716;37.846;2022-12-19T02:51:19;2.09;75.43
75130;HTU21D;63703;44.716;37.846;2022-12-19T02:53:46;2.08;75.43
75130;HTU21D;63703;44.716;37.846;2022-12-19T02:56:36;2.08;75.17
75130;HTU21D;63703;44.716;37.846;2022-12-19T02:59:17;2.08;75.26
75130;HTU21D;63703;44.716;37.846;2022-12-19T03:02:23;2.03;75.35
75130;HTU21D;63703;44.716;37.846;2022-12-19T03:07:54;1.99;75.21
75130;HTU21D;63703;44.716;37.846;2022-12-19T03:12:57;2.00;75.09
75130;HTU21D;63703;44.716;37.846;2022-12-19T03:15:25;1.97;75.07
75130;HTU21D;63703;44.716;37.846;2022-12-19T03:17:57;1.98;74.99
75130;HTU21D;63703;44.716;37.846;2022-12-19T03:20:54;1.99;74.88
75130;HTU21D;63703;44.716;37.846;2022-12-19T03:23:25;1.98;74.91
75130;HTU21D;63703;44.716;37.846;2022-12-19T03:25:58;1.97;74.92
75130;HTU21D;63703;44.716;37.846;2022-12-19T03:31:04;1.97;74.99
75130;HTU21D;63703;44.716;37.846;2022-12-19T03:33:33;1.98;74.99
75130;HTU21D;63703;44.716;37.846;2022-12-19T03:36:03;1.96;75.15
75130;HTU21D;63703;44.716;37.846;2022-12-19T03:38:31;1.97;75.12
75130;HTU21D;63703;44.716;37.846;2022-12-19T03:40:58;1.96;75.18
75130;HTU21D;63703;44.716;37.846;2022-12-19T03:43:27;1.91;75.38
75130;HTU21D;63703;44.716;37.846;2022-12-19T03:45:57;1.88;75.46
75130;HTU21D;63703;44.716;37.846;2022-12-19T03:48:40;1.88;75.57
75130;HTU21D;63703;44.716;37.846;2022-12-19T03:51:40;1.84;75.83
75130;HTU21D;63703;44.716;37.846;2022-12-19T03:56:47;1.73;76.15
75130;HTU21D;63703;44.716;37.846;2022-12-19T04:01:52;1.57;76.48
75130;HTU21D;63703;44.716;37.846;2022-12-19T04:04:20;1.54;76.62
75130;HTU21D;63703;44.716;37.846;2022-12-19T04:06:48;1.53;76.66
75130;HTU21D;63703;44.716;37.846;2022-12-19T04:09:16;1.54;76.64
75130;HTU21D;63703;44.716;37.846;2022-12-19T04:11:49;1.55;76.63
75130;HTU21D;63703;44.716;37.846;2022-12-19T04:14:24;1.58;76.50
75130;HTU21D;63703;44.716;37.846;2022-12-19T04:17:00;1.51;76.64
75130;HTU21D;63703;44.716;37.846;2022-12-19T04:24:56;1.42;76.58
75130;HTU21D;63703;44.716;37.846;2022-12-19T04:27:24;1.40;76.44
75130;HTU21D;63703;44.716;37.846;2022-12-19T04:29:55;1.37;76.48
75130;HTU21D;63703;44.716;37.846;2022-12-19T04:32:24;1.36;76.43
75130;HTU21D;63703;44.716;37.846;2022-12-19T04:34:50;1.33;76.37
75130;HTU21D;63703;44.716;37.846;2022-12-19T04:37:16;1.31;76.35
75130;HTU21D;63703;44.716;37.846;2022-12-19T04:39:42;1.31;76.24
75130;HTU21D;63703;44.716;37.846;2022-12-19T04:42:08;1.31;76.03
75130;HTU21D;63703;44.716;37.846;2022-12-19T04:44:34;1.29;75.94
75130;HTU21D;63703;44.716;37.846;2022-12-19T04:46:59;1.26;75.83
75130;HTU21D;63703;44.716;37.846;2022-12-19T04:49:25;1.25;75.74
75130;HTU21D;63703;44.716;37.846;2022-12-19T04:51:51;1.22;75.67
75130;HTU21D;63703;44.716;37.846;2022-12-19T04:54:17;1.20;75.53
75130;HTU21D;63703;44.716;37.846;2022-12-19T04:56:43;1.17;75.47
75130;HTU21D;63703;44.716;37.846;2022-12-19T04:59:09;1.14;75.59
75130;HTU21D;63703;44.716;37.846;2022-12-19T05:01:35;1.16;75.41
75130;HTU21D;63703;44.716;37.846;2022-12-19T05:04:01;1.12;75.51
75130;HTU21D;63703;44.716;37.846;2022-12-19T05:06:27;1.11;75.35
75130;HTU21D;63703;44.716;37.846;2022-12-19T05:08:53;1.11;75.24
75130;HTU21D;63703;44.716;37.846;2022-12-19T05:11:20;1.07;75.25
75130;HTU21D;63703;44.716;37.846;2022-12-19T05:13:46;1.07;74.96
75130;HTU21D;63703;44.716;37.846;2022-12-19T05:16:14;1.04;74.99
75130;HTU21D;63703;44.716;37.846;2022-12-19T05:18:40;1.02;74.92
75130;HTU21D;63703;44.716;37.846;2022-12-19T05:21:06;1.03;74.74
75130;HTU21D;63703;44.716;37.846;2022-12-19T05:23:33;0.99;74.76
75130;HTU21D;63703;44.716;37.846;2022-12-19T05:26:01;0.99;74.64
75130;HTU21D;63703;44.716;37.846;2022-12-19T05:28:27;0.98;74.44
75130;HTU21D;63703;44.716;37.846;2022-12-19T05:31:14;1.01;74.35
75130;HTU21D;63703;44.716;37.846;2022-12-19T05:33:40;0.97;74.42
75130;HTU21D;63703;44.716;37.846;2022-12-19T05:36:08;0.94;74.46
75130;HTU21D;63703;44.716;37.846;2022-12-19T05:38:35;0.94;74.49
75130;HTU21D;63703;44.716;37.846;2022-12-19T05:41:14;0.94;74.44
75130;HTU21D;63703;44.716;37.846;2022-12-19T05:43:41;0.94;74.47
75130;HTU21D;63703;44.716;37.846;2022-12-19T05:46:07;0.94;74.61
75130;HTU21D;63703;44.716;37.846;2022-12-19T05:48:34;0.96;74.48
75130;HTU21D;63703;44.716;37.846;2022-12-19T05:51:00;0.96;74.46
75130;HTU21D;63703;44.716;37.846;2022-12-19T05:53:27;0.96;74.53
75130;HTU21D;63703;44.716;37.846;2022-12-19T05:58:33;0.97;74.45
75130;HTU21D;63703;44.716;37.846;2022-12-19T06:01:10;0.97;74.35
75130;HTU21D;63703;44.716;37.846;2022-12-19T06:03:36;0.98;74.41
75130;HTU21D;63703;44.716;37.846;2022-12-19T06:06:08;0.98;74.51
75130;HTU21D;63703;44.716;37.846;2022-12-19T06:08:34;1.01;74.38
75130;HTU21D;63703;44.716;37.846;2022-12-19T06:11:01;0.96;74.61
75130;HTU21D;63703;44.716;37.846;2022-12-19T06:13:28;0.91;74.89
75130;HTU21D;63703;44.716;37.846;2022-12-19T06:16:07;0.94;74.85
75130;HTU21D;63703;44.716;37.846;2022-12-19T06:18:33;0.94;74.92
75130;HTU21D;63703;44.716;37.846;2022-12-19T06:21:02;0.96;74.80
75130;HTU21D;63703;44.716;37.846;2022-12-19T06:23:29;0.96;74.86
75130;HTU21D;63703;44.716;37.846;2022-12-19T06:25:59;0.97;74.86
75130;HTU21D;63703;44.716;37.846;2022-12-19T06:28:26;0.97;74.92
75130;HTU21D;63703;44.716;37.846;2022-12-19T06:31:00;0.97;74.98
75130;HTU21D;63703;44.716;37.846;2022-12-19T06:33:28;0.98;74.93
75130;HTU21D;63703;44.716;37.846;2022-12-19T06:36:05;0.99;74.98
75130;HTU21D;63703;44.716;37.846;2022-12-19T06:38:33;0.97;74.99
75130;HTU21D;63703;44.716;37.846;2022-12-19T06:40:59;0.96;75.00
75130;HTU21D;63703;44.716;37.846;2022-12-19T06:43:45;0.95;75.10
75130;HTU21D;63703;44.716;37.846;2022-12-19T06:46:11;0.94;75.12
75130;HTU21D;63703;44.716;37.846;2022-12-19T06:48:37;0.96;75.18
75130;HTU21D;63703;44.716;37.846;2022-12-19T06:51:03;0.96;75.05
75130;HTU21D;63703;44.716;37.846;2022-12-19T06:53:29;0.95;75.12
75130;HTU21D;63703;44.716;37.846;2022-12-19T06:55:56;0.92;75.19
75130;HTU21D;63703;44.716;37.846;2022-12-19T06:58:23;0.96;75.14
75130;HTU21D;63703;44.716;37.846;2022-12-19T07:00:49;0.97;75.06
75130;HTU21D;63703;44.716;37.846;2022-12-19T07:03:18;0.99;74.86
75130;HTU21D;63703;44.716;37.846;2022-12-19T07:05:47;0.99;74.83
75130;HTU21D;63703;44.716;37.846;2022-12-19T07:08:13;1.02;74.69
75130;HTU21D;63703;44.716;37.846;2022-12-19T07:10:39;1.06;74.35
75130;HTU21D;63703;44.716;37.846;2022-12-19T07:13:05;1.08;74.33
75130;HTU21D;63703;44.716;37.846;2022-12-19T07:15:32;1.09;74.19
75130;HTU21D;63703;44.716;37.846;2022-12-19T07:18:01;1.11;74.04
75130;HTU21D;63703;44.716;37.846;2022-12-19T07:20:29;1.12;73.82
75130;HTU21D;63703;44.716;37.846;2022-12-19T07:22:56;1.16;73.65
75130;HTU21D;63703;44.716;37.846;2022-12-19T07:25:22;1.13;73.38
75130;HTU21D;63703;44.716;37.846;2022-12-19T07:27:48;1.13;73.34
75130;HTU21D;63703;44.716;37.846;2022-12-19T07:30:14;1.14;73.13
75130;HTU21D;63703;44.716;37.846;2022-12-19T07:32:40;1.11;73.09
75130;HTU21D;63703;44.716;37.846;2022-12-19T07:35:06;1.09;72.90
75130;HTU21D;63703;44.716;37.846;2022-12-19T07:37:32;1.08;72.87
75130;HTU21D;63703;44.716;37.846;2022-12-19T07:39:58;1.07;72.72
75130;HTU21D;63703;44.716;37.846;2022-12-19T07:42:24;1.08;72.48
75130;HTU21D;63703;44.716;37.846;2022-12-19T07:44:50;1.07;72.51
75130;HTU21D;63703;44.716;37.846;2022-12-19T07:47:16;1.07;72.37
75130;HTU21D;63703;44.716;37.846;2022-12-19T07:49:41;1.09;72.35
75130;HTU21D;63703;44.716;37.846;2022-12-19T07:52:07;1.09;72.17
75130;HTU21D;63703;44.716;37.846;2022-12-19T07:54:33;1.09;72.15
75130;HTU21D;63703;44.716;37.846;2022-12-19T07:57:00;1.08;71.94
75130;HTU21D;63703;44.716;37.846;2022-12-19T07:59:26;1.07;72.12
75130;HTU21D;63703;44.716;37.846;2022-12-19T08:01:52;1.06;72.15
75130;HTU21D;63703;44.716;37.846;2022-12-19T08:04:18;1.06;72.13
75130;HTU21D;63703;44.716;37.846;2022-12-19T08:06:44;1.06;72.07
75130;HTU21D;63703;44.716;37.846;2022-12-19T08:09:12;1.01;71.96
75130;HTU21D;63703;44.716;37.846;2022-12-19T08:11:38;0.97;72.00
75130;HTU21D;63703;44.716;37.846;2022-12-19T08:14:04;0.94;72.10
75130;HTU21D;63703;44.716;37.846;2022-12-19T08:16:30;0.92;72.14
75130;HTU21D;63703;44.716;37.846;2022-12-19T08:18:56;0.90;72.15
75130;HTU21D;63703;44.716;37.846;2022-12-19T08:21:22;0.88;72.15
75130;HTU21D;63703;44.716;37.846;2022-12-19T08:23:49;0.88;71.96
75130;HTU21D;63703;44.716;37.846;2022-12-19T08:26:17;0.80;71.99
75130;HTU21D;63703;44.716;37.846;2022-12-19T08:28:53;0.79;71.73
75130;HTU21D;63703;44.716;37.846;2022-12-19T08:31:21;0.76;71.48
75130;HTU21D;63703;44.716;37.846;2022-12-19T08:33:50;0.76;71.22
75130;HTU21D;63703;44.716;37.846;2022-12-19T08:36:17;0.75;71.06
75130;HTU21D;63703;44.716;37.846;2022-12-19T08:38:44;0.75;71.18
75130;HTU21D;63703;44.716;37.846;2022-12-19T08:41:10;0.77;71.02
75130;HTU21D;63703;44.716;37.846;2022-12-19T08:43:37;0.80;71.28
75130;HTU21D;63703;44.716;37.846;2022-12-19T08:46:03;0.83;71.01
75130;HTU21D;63703;44.716;37.846;2022-12-19T08:48:30;0.86;70.52
75130;HTU21D;63703;44.716;37.846;2022-12-19T08:50:58;0.89;70.18
75130;HTU21D;63703;44.716;37.846;2022-12-19T08:53:28;0.89;69.86
75130;HTU21D;63703;44.716;37.846;2022-12-19T08:56:00;0.88;70.04
75130;HTU21D;63703;44.716;37.846;2022-12-19T08:58:27;0.90;69.81
75130;HTU21D;63703;44.716;37.846;2022-12-19T09:00:53;0.89;69.68
75130;HTU21D;63703;44.716;37.846;2022-12-19T09:03:21;0.89;69.48
75130;HTU21D;63703;44.716;37.846;2022-12-19T09:06:03;0.93;68.92
75130;HTU21D;63703;44.716;37.846;2022-12-19T09:08:30;0.93;69.04
75130;HTU21D;63703;44.716;37.846;2022-12-19T09:11:05;0.93;68.84
75130;HTU21D;63703;44.716;37.846;2022-12-19T09:13:35;0.94;68.97
75130;HTU21D;63703;44.716;37.846;2022-12-19T09:16:15;0.94;68.46
75130;HTU21D;63703;44.716;37.846;2022-12-19T09:18:44;0.92;68.47
75130;HTU21D;63703;44.716;37.846;2022-12-19T09:21:11;0.88;68.55
75130;HTU21D;63703;44.716;37.846;2022-12-19T09:23:38;0.89;68.18
75130;HTU21D;63703;44.716;37.846;2022-12-19T09:26:07;0.89;68.31
75130;HTU21D;63703;44.716;37.846;2022-12-19T09:28:34;0.84;68.04
75130;HTU21D;63703;44.716;37.846;2022-12-19T09:31:03;0.86;67.85
75130;HTU21D;63703;44.716;37.846;2022-12-19T09:33:31;0.84;68.08
75130;HTU21D;63703;44.716;37.846;2022-12-19T09:35:58;0.86;67.66
75130;HTU21D;63703;44.716;37.846;2022-12-19T09:38:25;0.88;67.64
75130;HTU21D;63703;44.716;37.846;2022-12-19T09:41:05;0.88;67.74
75130;HTU21D;63703;44.716;37.846;2022-12-19T09:46:47;0.88;67.47
75130;HTU21D;63703;44.716;37.846;2022-12-19T09:49:23;0.84;67.60
75130;HTU21D;63703;44.716;37.846;2022-12-19T09:51:59;0.87;67.12
75130;HTU21D;63703;44.716;37.846;2022-12-19T09:57:03;0.87;66.90
75130;HTU21D;63703;44.716;37.846;2022-12-19T09:59:39;0.87;66.63
75130;HTU21D;63703;44.716;37.846;2022-12-19T10:02:30;0.87;65.98
75130;HTU21D;63703;44.716;37.846;2022-12-19T10:07:35;0.91;65.64
75130;HTU21D;63703;44.716;37.846;2022-12-19T10:10:01;0.95;65.66
75130;HTU21D;63703;44.716;37.846;2022-12-19T10:12:46;1.08;64.81
75130;HTU21D;63703;44.716;37.846;2022-12-19T10:15:57;1.25;64.95
75130;HTU21D;63703;44.716;37.846;2022-12-19T10:19:16;1.58;63.97
75130;HTU21D;63703;44.716;37.846;2022-12-19T10:21:55;1.64;63.16
75130;HTU21D;63703;44.716;37.846;2022-12-19T10:27:03;1.53;64.29
75130;HTU21D;63703;44.716;37.846;2022-12-19T10:29:46;1.57;63.25
75130;HTU21D;63703;44.716;37.846;2022-12-19T10:32:22;1.65;63.18
75130;HTU21D;63703;44.716;37.846;2022-12-19T10:34:50;1.54;63.57
75130;HTU21D;63703;44.716;37.846;2022-12-19T10:37:23;1.45;63.31
75130;HTU21D;63703;44.716;37.846;2022-12-19T10:45:19;1.18;63.70
75130;HTU21D;63703;44.716;37.846;2022-12-19T10:47:47;1.13;63.76
75130;HTU21D;63703;44.716;37.846;2022-12-19T10:50:21;1.10;64.04
75130;HTU21D;63703;44.716;37.846;2022-12-19T10:55:42;1.07;63.14
75130;HTU21D;63703;44.716;37.846;2022-12-19T10:58:19;1.05;63.56
75130;HTU21D;63703;44.716;37.846;2022-12-19T11:01:05;1.03;63.22
75130;HTU21D;63703;44.716;37.846;2022-12-19T11:03:34;0.97;63.59
75130;HTU21D;63703;44.716;37.846;2022-12-19T11:06:02;0.99;63.82
75130;HTU21D;63703;44.716;37.846;2022-12-19T11:16:02;0.98;64.14
75130;HTU21D;63703;44.716;37.846;2022-12-19T11:18:37;0.93;63.90
75130;HTU21D;63703;44.716;37.846;2022-12-19T11:23:56;0.81;64.11
75130;HTU21D;63703;44.716;37.846;2022-12-19T11:28:51;0.65;64.30
75130;HTU21D;63703;44.716;37.846;2022-12-19T11:33:53;0.60;64.50
75130;HTU21D;63703;44.716;37.846;2022-12-19T11:39:27;0.58;63.95
75130;HTU21D;63703;44.716;37.846;2022-12-19T11:44:36;0.51;63.76
75130;HTU21D;63703;44.716;37.846;2022-12-19T11:50:10;0.53;63.70
75130;HTU21D;63703;44.716;37.846;2022-12-19T11:53:19;0.61;63.21
75130;HTU21D;63703;44.716;37.846;2022-12-19T11:56:08;0.72;63.30
75130;HTU21D;63703;44.716;37.846;2022-12-19T11:58:35;0.72;63.37
75130;HTU21D;63703;44.716;37.846;2022-12-19T12:07:08;0.51;63.28
75130;HTU21D;63703;44.716;37.846;2022-12-19T12:15:11;0.47;63.85
75130;HTU21D;63703;44.716;37.846;2022-12-19T12:23:09;0.47;64.21
75130;HTU21D;63703;44.716;37.846;2022-12-19T12:28:51;0.64;64.41
75130;HTU21D;63703;44.716;37.846;2022-12-19T12:31:45;0.54;64.40
75130;HTU21D;63703;44.716;37.846;2022-12-19T12:42:32;0.27;64.96
75130;HTU21D;63703;44.716;37.846;2022-12-19T12:45:45;0.20;65.37
75130;HTU21D;63703;44.716;37.846;2022-12-19T12:50:58;-0.00;66.04
75130;HTU21D;63703;44.716;37.846;2022-12-19T12:53:30;-0.07;66.26
75130;HTU21D;63703;44.716;37.846;2022-12-19T12:55:59;-0.16;66.55
75130;HTU21D;63703;44.716;37.846;2022-12-19T13:01:20;-0.20;65.56
75130;HTU21D;63703;44.716;37.846;2022-12-19T13:03:54;-0.29;66.35
75130;HTU21D;63703;44.716;37.846;2022-12-19T13:06:40;-0.36;66.85
75130;HTU21D;63703;44.716;37.846;2022-12-19T13:17:08;-0.42;66.05
75130;HTU21D;63703;44.716;37.846;2022-12-19T13:19:55;-0.43;66.40
75130;HTU21D;63703;44.716;37.846;2022-12-19T13:23:07;-0.47;67.04
75130;HTU21D;63703;44.716;37.846;2022-12-19T13:30:33;-0.58;66.92
75130;HTU21D;63703;44.716;37.846;2022-12-19T13:38:01;-0.69;67.06
75130;HTU21D;63703;44.716;37.846;2022-12-19T13:46:25;-0.82;67.27
75130;HTU21D;63703;44.716;37.846;2022-12-19T13:48:55;-0.86;67.58
75130;HTU21D;63703;44.716;37.846;2022-12-19T13:51:22;-0.88;67.85
75130;HTU21D;63703;44.716;37.846;2022-12-19T13:53:52;-0.90;67.91
75130;HTU21D;63703;44.716;37.846;2022-12-19T13:56:19;-0.90;67.97
75130;HTU21D;63703;44.716;37.846;2022-12-19T13:59:15;-0.87;68.01
75130;HTU21D;63703;44.716;37.846;2022-12-19T14:01:41;-0.89;68.04
75130;HTU21D;63703;44.716;37.846;2022-12-19T14:04:13;-0.91;67.94
75130;HTU21D;63703;44.716;37.846;2022-12-19T14:07:01;-0.91;67.72
75130;HTU21D;63703;44.716;37.846;2022-12-19T14:09:37;-0.91;67.12
75130;HTU21D;63703;44.716;37.846;2022-12-19T14:12:09;-0.91;67.07
75130;HTU21D;63703;44.716;37.846;2022-12-19T14:14:56;-0.97;67.29
75130;HTU21D;63703;44.716;37.846;2022-12-19T14:17:47;-1.00;67.45
75130;HTU21D;63703;44.716;37.846;2022-12-19T14:20:28;-0.99;67.15
75130;HTU21D;63703;44.716;37.846;2022-12-19T14:22:58;-1.00;67.20
75130;HTU21D;63703;44.716;37.846;2022-12-19T14:25:40;-1.01;67.39
75130;HTU21D;63703;44.716;37.846;2022-12-19T14:28:12;-1.02;67.59
75130;HTU21D;63703;44.716;37.846;2022-12-19T14:30:41;-1.02;67.91
75130;HTU21D;63703;44.716;37.846;2022-12-19T14:33:17;-1.03;68.21
75130;HTU21D;63703;44.716;37.846;2022-12-19T14:35:52;-1.03;68.39
75130;HTU21D;63703;44.716;37.846;2022-12-19T14:38:21;-1.02;68.49
75130;HTU21D;63703;44.716;37.846;2022-12-19T14:40:49;-1.03;68.52
75130;HTU21D;63703;44.716;37.846;2022-12-19T14:43:41;-1.06;68.57
75130;HTU21D;63703;44.716;37.846;2022-12-19T14:48:59;-1.09;68.87
75130;HTU21D;63703;44.716;37.846;2022-12-19T14:51:38;-1.09;68.90
75130;HTU21D;63703;44.716;37.846;2022-12-19T14:54:23;-1.08;69.31
75130;HTU21D;63703;44.716;37.846;2022-12-19T14:56:50;-1.09;69.40
75130;HTU21D;63703;44.716;37.846;2022-12-19T14:59:43;-1.11;69.68
75130;HTU21D;63703;44.716;37.846;2022-12-19T15:02:23;-1.10;69.75
75130;HTU21D;63703;44.716;37.846;2022-12-19T15:07:27;-1.14;70.03
75130;HTU21D;63703;44.716;37.846;2022-12-19T15:12:26;-1.11;70.42
75130;HTU21D;63703;44.716;37.846;2022-12-19T15:15:38;-1.10;70.64
75130;HTU21D;63703;44.716;37.846;2022-12-19T15:18:37;-1.10;70.32
75130;HTU21D;63703;44.716;37.846;2022-12-19T15:21:06;-1.13;69.90
75130;HTU21D;63703;44.716;37.846;2022-12-19T15:23:33;-1.15;69.56
75130;HTU21D;63703;44.716;37.846;2022-12-19T15:26:02;-1.15;69.74
75130;HTU21D;63703;44.716;37.846;2022-12-19T15:28:46;-1.14;69.42
75130;HTU21D;63703;44.716;37.846;2022-12-19T15:31:29;-1.17;69.11
75130;HTU21D;63703;44.716;37.846;2022-12-19T15:33:57;-1.15;68.86
75130;HTU21D;63703;44.716;37.846;2022-12-19T15:36:24;-1.16;68.79
75130;HTU21D;63703;44.716;37.846;2022-12-19T15:38:49;-1.18;68.81
75130;HTU21D;63703;44.716;37.846;2022-12-19T15:41:20;-1.15;68.44
75130;HTU21D;63703;44.716;37.846;2022-12-19T15:43:46;-1.15;68.39
75130;HTU21D;63703;44.716;37.846;2022-12-19T15:46:12;-1.17;68.40
75130;HTU21D;63703;44.716;37.846;2022-12-19T15:48:43;-1.16;68.47
75130;HTU21D;63703;44.716;37.846;2022-12-19T15:51:13;-1.16;68.46
75130;HTU21D;63703;44.716;37.846;2022-12-19T15:53:39;-1.17;68.19
75130;HTU21D;63703;44.716;37.846;2022-12-19T15:56:13;-1.17;67.95
75130;HTU21D;63703;44.716;37.846;2022-12-19T15:58:47;-1.17;67.44
75130;HTU21D;63703;44.716;37.846;2022-12-19T16:01:12;-1.19;67.49
75130;HTU21D;63703;44.716;37.846;2022-12-19T16:03:38;-1.17;67.20
75130;HTU21D;63703;44.716;37.846;2022-12-19T16:06:11;-1.19;67.49
75130;HTU21D;63703;44.716;37.846;2022-12-19T16:08:38;-1.18;67.45
75130;HTU21D;63703;44.716;37.846;2022-12-19T16:11:04;-1.16;67.49
75130;HTU21D;63703;44.716;37.846;2022-12-19T16:13:32;-1.15;67.72
75130;HTU21D;63703;44.716;37.846;2022-12-19T16:16:00;-1.13;67.88
75130;HTU21D;63703;44.716;37.846;2022-12-19T16:18:27;-1.12;68.09
75130;HTU21D;63703;44.716;37.846;2022-12-19T16:20:53;-1.10;68.26
75130;HTU21D;63703;44.716;37.846;2022-12-19T16:23:19;-1.06;68.45
75130;HTU21D;63703;44.716;37.846;2022-12-19T16:25:48;-1.03;68.64
75130;HTU21D;63703;44.716;37.846;2022-12-19T16:28:28;-0.99;68.80
75130;HTU21D;63703;44.716;37.846;2022-12-19T16:30:55;-0.98;68.88
75130;HTU21D;63703;44.716;37.846;2022-12-19T16:33:24;-0.97;69.02
75130;HTU21D;63703;44.716;37.846;2022-12-19T16:35:50;-0.98;69.14
75130;HTU21D;63703;44.716;37.846;2022-12-19T16:38:17;-0.98;69.16
75130;HTU21D;63703;44.716;37.846;2022-12-19T16:40:44;-0.98;69.17
75130;HTU21D;63703;44.716;37.846;2022-12-19T16:43:27;-0.99;69.19
75130;HTU21D;63703;44.716;37.846;2022-12-19T16:45:53;-1.04;69.14
75130;HTU21D;63703;44.716;37.846;2022-12-19T16:48:22;-1.04;69.00
75130;HTU21D;63703;44.716;37.846;2022-12-19T16:50:48;-1.06;69.00
75130;HTU21D;63703;44.716;37.846;2022-12-19T16:53:15;-1.06;68.65
75130;HTU21D;63703;44.716;37.846;2022-12-19T16:55:42;-1.04;68.42
75130;HTU21D;63703;44.716;37.846;2022-12-19T16:58:29;-1.11;68.58
75130;HTU21D;63703;44.716;37.846;2022-12-19T17:00:55;-1.11;68.48
75130;HTU21D;63703;44.716;37.846;2022-12-19T17:06:02;-1.16;68.76
75130;HTU21D;63703;44.716;37.846;2022-12-19T17:08:28;-1.16;68.77
75130;HTU21D;63703;44.716;37.846;2022-12-19T17:10:54;-1.17;68.90
75130;HTU21D;63703;44.716;37.846;2022-12-19T17:13:21;-1.17;68.98
75130;HTU21D;63703;44.716;37.846;2022-12-19T17:15:48;-1.15;68.94
75130;HTU21D;63703;44.716;37.846;2022-12-19T17:18:40;-1.15;69.11
75130;HTU21D;63703;44.716;37.846;2022-12-19T17:21:16;-1.14;69.01
75130;HTU21D;63703;44.716;37.846;2022-12-19T17:23:42;-1.18;69.15
75130;HTU21D;63703;44.716;37.846;2022-12-19T17:26:08;-1.18;69.20
75130;HTU21D;63703;44.716;37.846;2022-12-19T17:28:34;-1.18;69.13
75130;HTU21D;63703;44.716;37.846;2022-12-19T17:31:04;-1.20;69.16
75130;HTU21D;63703;44.716;37.846;2022-12-19T17:33:34;-1.24;69.16
75130;HTU21D;63703;44.716;37.846;2022-12-19T17:36:01;-1.26;69.25
75130;HTU21D;63703;44.716;37.846;2022-12-19T17:38:27;-1.26;69.26
75130;HTU21D;63703;44.716;37.846;2022-12-19T17:40:53;-1.28;69.42
75130;HTU21D;63703;44.716;37.846;2022-12-19T17:43:20;-1.28;69.45
75130;HTU21D;63703;44.716;37.846;2022-12-19T17:45:46;-1.30;69.54
75130;HTU21D;63703;44.716;37.846;2022-12-19T17:48:22;-1.31;69.56
75130;HTU21D;63703;44.716;37.846;2022-12-19T17:50:49;-1.33;69.58
75130;HTU21D;63703;44.716;37.846;2022-12-19T17:53:15;-1.34;69.60
75130;HTU21D;63703;44.716;37.846;2022-12-19T17:55:41;-1.39;69.67
75130;HTU21D;63703;44.716;37.846;2022-12-19T17:58:10;-1.38;69.57
75130;HTU21D;63703;44.716;37.846;2022-12-19T18:00:37;-1.42;69.63
75130;HTU21D;63703;44.716;37.846;2022-12-19T18:03:17;-1.41;69.49
75130;HTU21D;63703;44.716;37.846;2022-12-19T18:05:44;-1.41;69.39
75130;HTU21D;63703;44.716;37.846;2022-12-19T18:08:24;-1.40;69.29